This is the latest recevied weather packets stored in our database for station/object PY2RMF-10. If no packets are shown the sender has not sent any weather packets the latest 1 day(s).
| Time | Temp. | Humidity | Pressure | Rain* | Wind** | Luminosity | Snow |
|---|---|---|---|---|---|---|---|
| 1778026712 | 23.33° C | 83% | 1009 hPa | - | 0.89 m/s, 95° | - | - |
| 1778024911 | 23.33° C | 79% | 1009 hPa | - | 0.89 m/s, 95° | - | - |
| 1778023111 | 23.89° C | 74% | 1009 hPa | - | 0.89 m/s, 95° | - | - |
| 1778021311 | 23.89° C | 69% | 1008 hPa | - | 0.89 m/s, 95° | - | - |
| 1778019511 | 24.44° C | 68% | 1008 hPa | - | 0.89 m/s, 95° | - | - |
| 1778017711 | 25.56° C | 60% | 1008 hPa | - | 0.89 m/s, 95° | - | - |
| 1778015911 | 26.67° C | 51% | 1008 hPa | - | 0.89 m/s, 95° | - | - |
| 1778014111 | 28.33° C | 47% | 1007 hPa | - | 0.89 m/s, 95° | - | - |
| 1778012312 | 29.44° C | 43% | 1007 hPa | - | 0.89 m/s, 95° | - | - |
| 1778010517 | 31.67° C | 41% | 1007 hPa | - | 0.89 m/s, 95° | - | - |
| 1778010511 | 31.11° C | 41% | 1007 hPa | - | 0.89 m/s, 95° | - | - |
| 1778008711 | 33.33° C | 38% | 1007 hPa | - | 0.89 m/s, 95° | - | - |
| 1778006917 | 33.89° C | 34% | 1006 hPa | - | 0.89 m/s, 95° | - | - |
| 1778006911 | 33.89° C | 35% | 1006 hPa | - | 0.89 m/s, 95° | - | - |
| 1778005111 | 33.33° C | 32% | 1007 hPa | - | 0.89 m/s, 95° | - | - |
| 1778003311 | 37.22° C | 27% | 1007 hPa | - | 0.89 m/s, 95° | - | - |
| 1778001511 | 37.78° C | 26% | 1007 hPa | - | 0.89 m/s, 95° | - | - |
| 1777999711 | 44.44° C | 20% | 1007 hPa | - | 0.89 m/s, 95° | - | - |
| 1777997912 | 42.78° C | 23% | 1007 hPa | - | 0.89 m/s, 95° | - | - |
| 1777996111 | 40.56° C | 26% | 1008 hPa | - | 0.89 m/s, 95° | - | - |
| 1777994311 | 38.33° C | 31% | 1008 hPa | - | 0.89 m/s, 95° | - | - |
| 1777992518 | 34.44° C | 42% | 1008 hPa | - | 0.89 m/s, 95° | - | - |
| 1777992511 | 34.44° C | 43% | 1008 hPa | - | 0.89 m/s, 95° | - | - |
| 1777990716 | 30.56° C | 54% | 1009 hPa | - | 0.89 m/s, 95° | - | - |
| 1777990711 | 30.56° C | 55% | 1009 hPa | - | 0.89 m/s, 95° | - | - |
* Rain since midnight (hover to see other rain measurements)
** Current wind speed in m/s (hover to see current wind gust speed)